sensor_id;sensor_type;location;lat;lon;timestamp;P1;durP1;ratioP1;P2;durP2;ratioP2
4676;SDS011;2352;48.180;11.478;2022-11-18T00:01:33;1.20;;;1.10;;
4676;SDS011;2352;48.180;11.478;2022-11-18T00:04:36;0.80;;;0.70;;
4676;SDS011;2352;48.180;11.478;2022-11-18T00:07:39;1.00;;;1.00;;
4676;SDS011;2352;48.180;11.478;2022-11-18T00:10:43;0.47;;;0.47;;
4676;SDS011;2352;48.180;11.478;2022-11-18T00:13:46;0.67;;;0.40;;
4676;SDS011;2352;48.180;11.478;2022-11-18T00:17:03;0.37;;;0.30;;
4676;SDS011;2352;48.180;11.478;2022-11-18T00:20:07;0.43;;;0.43;;
4676;SDS011;2352;48.180;11.478;2022-11-18T00:23:10;0.20;;;0.20;;
4676;SDS011;2352;48.180;11.478;2022-11-18T00:26:15;1.33;;;0.80;;
4676;SDS011;2352;48.180;11.478;2022-11-18T00:29:18;0.40;;;0.40;;
4676;SDS011;2352;48.180;11.478;2022-11-18T00:32:22;0.67;;;0.40;;
4676;SDS011;2352;48.180;11.478;2022-11-18T00:35:25;0.93;;;0.30;;
4676;SDS011;2352;48.180;11.478;2022-11-18T00:38:28;0.40;;;0.30;;
4676;SDS011;2352;48.180;11.478;2022-11-18T00:41:32;0.40;;;0.40;;
4676;SDS011;2352;48.180;11.478;2022-11-18T00:44:49;0.40;;;0.27;;
4676;SDS011;2352;48.180;11.478;2022-11-18T00:47:52;1.33;;;0.57;;
4676;SDS011;2352;48.180;11.478;2022-11-18T00:50:56;0.23;;;0.23;;
4676;SDS011;2352;48.180;11.478;2022-11-18T00:54:00;0.30;;;0.30;;
4676;SDS011;2352;48.180;11.478;2022-11-18T00:57:05;0.57;;;0.30;;
4676;SDS011;2352;48.180;11.478;2022-11-18T01:00:08;0.20;;;0.20;;
4676;SDS011;2352;48.180;11.478;2022-11-18T01:03:12;0.20;;;0.20;;
4676;SDS011;2352;48.180;11.478;2022-11-18T01:06:15;0.20;;;0.20;;
4676;SDS011;2352;48.180;11.478;2022-11-18T01:09:18;0.20;;;0.20;;
4676;SDS011;2352;48.180;11.478;2022-11-18T01:12:22;3.37;;;0.50;;
4676;SDS011;2352;48.180;11.478;2022-11-18T01:15:43;0.30;;;0.20;;
4676;SDS011;2352;48.180;11.478;2022-11-18T01:18:47;0.40;;;0.30;;
4676;SDS011;2352;48.180;11.478;2022-11-18T01:21:50;0.40;;;0.40;;
4676;SDS011;2352;48.180;11.478;2022-11-18T01:24:53;0.73;;;0.20;;
4676;SDS011;2352;48.180;11.478;2022-11-18T01:27:57;0.27;;;0.20;;
4676;SDS011;2352;48.180;11.478;2022-11-18T01:31:02;0.67;;;0.20;;
4676;SDS011;2352;48.180;11.478;2022-11-18T01:34:06;0.67;;;0.50;;
4676;SDS011;2352;48.180;11.478;2022-11-18T01:37:09;0.30;;;0.30;;
4676;SDS011;2352;48.180;11.478;2022-11-18T01:40:12;0.40;;;0.30;;
4676;SDS011;2352;48.180;11.478;2022-11-18T01:43:17;0.33;;;0.33;;
4676;SDS011;2352;48.180;11.478;2022-11-18T01:46:22;0.63;;;0.50;;
4676;SDS011;2352;48.180;11.478;2022-11-18T01:49:26;1.80;;;0.40;;
4676;SDS011;2352;48.180;11.478;2022-11-18T01:52:29;0.70;;;0.70;;
4676;SDS011;2352;48.180;11.478;2022-11-18T01:55:34;0.70;;;0.70;;
4676;SDS011;2352;48.180;11.478;2022-11-18T01:58:44;0.80;;;0.80;;
4676;SDS011;2352;48.180;11.478;2022-11-18T02:01:51;0.70;;;0.70;;
4676;SDS011;2352;48.180;11.478;2022-11-18T02:05:00;1.57;;;0.60;;
4676;SDS011;2352;48.180;11.478;2022-11-18T02:08:05;1.33;;;0.97;;
4676;SDS011;2352;48.180;11.478;2022-11-18T02:11:09;0.97;;;0.93;;
4676;SDS011;2352;48.180;11.478;2022-11-18T02:14:36;0.60;;;0.60;;
4676;SDS011;2352;48.180;11.478;2022-11-18T02:17:43;2.10;;;0.70;;
4676;SDS011;2352;48.180;11.478;2022-11-18T02:20:54;0.40;;;0.40;;
4676;SDS011;2352;48.180;11.478;2022-11-18T02:24:13;0.40;;;0.40;;
4676;SDS011;2352;48.180;11.478;2022-11-18T02:31:21;1.03;;;0.40;;
4676;SDS011;2352;48.180;11.478;2022-11-18T02:34:35;0.33;;;0.30;;
4676;SDS011;2352;48.180;11.478;2022-11-18T02:37:43;0.40;;;0.40;;
4676;SDS011;2352;48.180;11.478;2022-11-18T02:40:51;0.73;;;0.73;;
4676;SDS011;2352;48.180;11.478;2022-11-18T02:43:58;1.70;;;0.47;;
4676;SDS011;2352;48.180;11.478;2022-11-18T02:47:07;0.50;;;0.50;;
4676;SDS011;2352;48.180;11.478;2022-11-18T02:50:15;1.47;;;1.00;;
4676;SDS011;2352;48.180;11.478;2022-11-18T02:53:21;0.73;;;0.70;;
4676;SDS011;2352;48.180;11.478;2022-11-18T02:56:26;1.40;;;1.17;;
4676;SDS011;2352;48.180;11.478;2022-11-18T02:59:30;0.90;;;0.77;;
4676;SDS011;2352;48.180;11.478;2022-11-18T03:02:40;0.80;;;0.70;;
4676;SDS011;2352;48.180;11.478;2022-11-18T03:05:45;0.67;;;0.40;;
4676;SDS011;2352;48.180;11.478;2022-11-18T03:08:57;0.60;;;0.40;;
4676;SDS011;2352;48.180;11.478;2022-11-18T03:12:09;2.53;;;0.50;;
4676;SDS011;2352;48.180;11.478;2022-11-18T03:15:19;0.97;;;0.50;;
4676;SDS011;2352;48.180;11.478;2022-11-18T03:18:37;0.60;;;0.50;;
4676;SDS011;2352;48.180;11.478;2022-11-18T03:21:47;0.40;;;0.40;;
4676;SDS011;2352;48.180;11.478;2022-11-18T03:25:02;0.30;;;0.30;;
4676;SDS011;2352;48.180;11.478;2022-11-18T03:28:09;0.97;;;0.43;;
4676;SDS011;2352;48.180;11.478;2022-11-18T03:31:18;0.50;;;0.50;;
4676;SDS011;2352;48.180;11.478;2022-11-18T03:34:26;0.87;;;0.30;;
4676;SDS011;2352;48.180;11.478;2022-11-18T03:37:32;0.87;;;0.43;;
4676;SDS011;2352;48.180;11.478;2022-11-18T03:40:37;0.50;;;0.50;;
4676;SDS011;2352;48.180;11.478;2022-11-18T03:43:42;0.93;;;0.27;;
4676;SDS011;2352;48.180;11.478;2022-11-18T03:46:50;0.37;;;0.37;;
4676;SDS011;2352;48.180;11.478;2022-11-18T03:50:00;0.30;;;0.30;;
4676;SDS011;2352;48.180;11.478;2022-11-18T03:53:09;0.20;;;0.20;;
4676;SDS011;2352;48.180;11.478;2022-11-18T03:56:14;0.70;;;0.20;;
4676;SDS011;2352;48.180;11.478;2022-11-18T03:59:21;0.13;;;0.13;;
4676;SDS011;2352;48.180;11.478;2022-11-18T04:02:27;0.67;;;0.23;;
4676;SDS011;2352;48.180;11.478;2022-11-18T04:05:35;0.80;;;0.20;;
4676;SDS011;2352;48.180;11.478;2022-11-18T04:08:41;0.30;;;0.30;;
4676;SDS011;2352;48.180;11.478;2022-11-18T04:11:49;1.30;;;0.20;;
4676;SDS011;2352;48.180;11.478;2022-11-18T04:15:04;0.40;;;0.30;;
4676;SDS011;2352;48.180;11.478;2022-11-18T04:18:08;0.10;;;0.10;;
4676;SDS011;2352;48.180;11.478;2022-11-18T04:21:12;0.20;;;0.20;;
4676;SDS011;2352;48.180;11.478;2022-11-18T04:24:15;0.30;;;0.20;;
4676;SDS011;2352;48.180;11.478;2022-11-18T04:27:18;0.50;;;0.50;;
4676;SDS011;2352;48.180;11.478;2022-11-18T04:30:21;2.60;;;1.80;;
4676;SDS011;2352;48.180;11.478;2022-11-18T04:33:24;0.40;;;0.40;;
4676;SDS011;2352;48.180;11.478;2022-11-18T04:36:29;0.30;;;0.30;;
4676;SDS011;2352;48.180;11.478;2022-11-18T04:39:32;0.60;;;0.60;;
4676;SDS011;2352;48.180;11.478;2022-11-18T04:42:34;0.50;;;0.40;;
4676;SDS011;2352;48.180;11.478;2022-11-18T04:45:37;0.30;;;0.30;;
4676;SDS011;2352;48.180;11.478;2022-11-18T04:48:40;1.40;;;0.30;;
4676;SDS011;2352;48.180;11.478;2022-11-18T04:51:45;0.33;;;0.30;;
4676;SDS011;2352;48.180;11.478;2022-11-18T04:54:48;0.50;;;0.40;;
4676;SDS011;2352;48.180;11.478;2022-11-18T04:57:51;0.47;;;0.23;;
4676;SDS011;2352;48.180;11.478;2022-11-18T05:00:54;0.20;;;0.20;;
4676;SDS011;2352;48.180;11.478;2022-11-18T05:03:58;0.20;;;0.20;;
4676;SDS011;2352;48.180;11.478;2022-11-18T05:07:03;0.77;;;0.77;;
4676;SDS011;2352;48.180;11.478;2022-11-18T05:10:08;0.30;;;0.30;;
4676;SDS011;2352;48.180;11.478;2022-11-18T05:13:11;0.23;;;0.20;;
4676;SDS011;2352;48.180;11.478;2022-11-18T05:16:13;0.40;;;0.40;;
4676;SDS011;2352;48.180;11.478;2022-11-18T05:19:16;0.63;;;0.20;;
4676;SDS011;2352;48.180;11.478;2022-11-18T05:22:21;0.20;;;0.20;;
4676;SDS011;2352;48.180;11.478;2022-11-18T05:25:24;0.67;;;0.30;;
4676;SDS011;2352;48.180;11.478;2022-11-18T05:28:27;0.50;;;0.20;;
4676;SDS011;2352;48.180;11.478;2022-11-18T05:31:30;0.43;;;0.20;;
4676;SDS011;2352;48.180;11.478;2022-11-18T05:34:33;0.20;;;0.20;;
4676;SDS011;2352;48.180;11.478;2022-11-18T05:37:38;0.20;;;0.20;;
4676;SDS011;2352;48.180;11.478;2022-11-18T05:40:40;0.90;;;0.30;;
4676;SDS011;2352;48.180;11.478;2022-11-18T05:43:44;0.30;;;0.20;;
4676;SDS011;2352;48.180;11.478;2022-11-18T05:46:45;0.27;;;0.27;;
4676;SDS011;2352;48.180;11.478;2022-11-18T05:49:48;0.20;;;0.20;;
4676;SDS011;2352;48.180;11.478;2022-11-18T05:52:53;0.20;;;0.20;;
4676;SDS011;2352;48.180;11.478;2022-11-18T05:55:57;0.97;;;0.43;;
4676;SDS011;2352;48.180;11.478;2022-11-18T05:59:05;0.70;;;0.57;;
4676;SDS011;2352;48.180;11.478;2022-11-18T06:02:10;0.47;;;0.47;;
4676;SDS011;2352;48.180;11.478;2022-11-18T06:05:16;0.20;;;0.20;;
4676;SDS011;2352;48.180;11.478;2022-11-18T06:08:21;0.70;;;0.50;;
4676;SDS011;2352;48.180;11.478;2022-11-18T06:11:27;0.63;;;0.33;;
4676;SDS011;2352;48.180;11.478;2022-11-18T06:14:31;0.50;;;0.47;;
4676;SDS011;2352;48.180;11.478;2022-11-18T06:17:38;1.10;;;0.40;;
4676;SDS011;2352;48.180;11.478;2022-11-18T06:20:45;0.57;;;0.23;;
4676;SDS011;2352;48.180;11.478;2022-11-18T06:23:49;0.73;;;0.73;;
4676;SDS011;2352;48.180;11.478;2022-11-18T06:26:52;0.43;;;0.43;;
4676;SDS011;2352;48.180;11.478;2022-11-18T06:29:55;0.40;;;0.40;;
4676;SDS011;2352;48.180;11.478;2022-11-18T06:32:58;6.13;;;5.73;;
4676;SDS011;2352;48.180;11.478;2022-11-18T06:36:01;0.70;;;0.70;;
4676;SDS011;2352;48.180;11.478;2022-11-18T06:39:06;0.43;;;0.40;;
4676;SDS011;2352;48.180;11.478;2022-11-18T06:42:09;0.60;;;0.40;;
4676;SDS011;2352;48.180;11.478;2022-11-18T06:45:12;0.43;;;0.40;;
4676;SDS011;2352;48.180;11.478;2022-11-18T06:48:14;0.27;;;0.27;;
4676;SDS011;2352;48.180;11.478;2022-11-18T06:51:17;0.47;;;0.47;;
4676;SDS011;2352;48.180;11.478;2022-11-18T06:54:22;1.30;;;1.17;;
4676;SDS011;2352;48.180;11.478;2022-11-18T06:57:25;2.77;;;1.10;;
4676;SDS011;2352;48.180;11.478;2022-11-18T07:00:27;0.80;;;0.60;;
4676;SDS011;2352;48.180;11.478;2022-11-18T07:03:30;0.73;;;0.53;;
4676;SDS011;2352;48.180;11.478;2022-11-18T07:06:34;2.03;;;0.80;;
4676;SDS011;2352;48.180;11.478;2022-11-18T07:09:39;3.00;;;1.23;;
4676;SDS011;2352;48.180;11.478;2022-11-18T07:12:42;2.10;;;0.80;;
4676;SDS011;2352;48.180;11.478;2022-11-18T07:15:45;4.03;;;1.50;;
4676;SDS011;2352;48.180;11.478;2022-11-18T07:18:48;1.10;;;0.70;;
4676;SDS011;2352;48.180;11.478;2022-11-18T07:21:52;1.80;;;0.80;;
4676;SDS011;2352;48.180;11.478;2022-11-18T07:24:56;0.23;;;0.23;;
4676;SDS011;2352;48.180;11.478;2022-11-18T07:27:59;0.30;;;0.30;;
4676;SDS011;2352;48.180;11.478;2022-11-18T07:31:03;2.53;;;1.00;;
4676;SDS011;2352;48.180;11.478;2022-11-18T07:34:08;1.17;;;0.40;;
4676;SDS011;2352;48.180;11.478;2022-11-18T07:37:10;0.60;;;0.60;;
4676;SDS011;2352;48.180;11.478;2022-11-18T07:40:15;2.10;;;0.67;;
4676;SDS011;2352;48.180;11.478;2022-11-18T07:43:18;1.63;;;0.70;;
4676;SDS011;2352;48.180;11.478;2022-11-18T07:46:22;3.03;;;1.03;;
4676;SDS011;2352;48.180;11.478;2022-11-18T07:49:26;1.83;;;0.60;;
4676;SDS011;2352;48.180;11.478;2022-11-18T07:52:28;0.40;;;0.40;;
4676;SDS011;2352;48.180;11.478;2022-11-18T07:55:33;0.30;;;0.30;;
4676;SDS011;2352;48.180;11.478;2022-11-18T07:58:36;0.40;;;0.40;;
4676;SDS011;2352;48.180;11.478;2022-11-18T08:01:39;0.50;;;0.30;;
4676;SDS011;2352;48.180;11.478;2022-11-18T08:04:42;0.73;;;0.40;;
4676;SDS011;2352;48.180;11.478;2022-11-18T08:07:45;0.27;;;0.27;;
4676;SDS011;2352;48.180;11.478;2022-11-18T08:10:49;0.63;;;0.33;;
4676;SDS011;2352;48.180;11.478;2022-11-18T08:13:52;0.27;;;0.27;;
4676;SDS011;2352;48.180;11.478;2022-11-18T08:16:55;0.40;;;0.40;;
4676;SDS011;2352;48.180;11.478;2022-11-18T08:19:58;0.20;;;0.20;;
4676;SDS011;2352;48.180;11.478;2022-11-18T08:23:01;0.20;;;0.20;;
4676;SDS011;2352;48.180;11.478;2022-11-18T08:26:06;0.43;;;0.43;;
4676;SDS011;2352;48.180;11.478;2022-11-18T08:29:11;0.60;;;0.40;;
4676;SDS011;2352;48.180;11.478;2022-11-18T08:32:13;1.30;;;1.20;;
4676;SDS011;2352;48.180;11.478;2022-11-18T08:35:16;5.03;;;1.10;;
4676;SDS011;2352;48.180;11.478;2022-11-18T08:38:19;1.03;;;1.03;;
4676;SDS011;2352;48.180;11.478;2022-11-18T08:41:27;1.30;;;0.70;;
4676;SDS011;2352;48.180;11.478;2022-11-18T08:44:32;1.53;;;1.27;;
4676;SDS011;2352;48.180;11.478;2022-11-18T08:47:36;5.93;;;1.30;;
4676;SDS011;2352;48.180;11.478;2022-11-18T08:50:40;0.80;;;0.80;;
4676;SDS011;2352;48.180;11.478;2022-11-18T08:53:44;0.93;;;0.67;;
4676;SDS011;2352;48.180;11.478;2022-11-18T08:56:48;2.00;;;0.90;;
4676;SDS011;2352;48.180;11.478;2022-11-18T08:59:51;1.23;;;0.77;;
4676;SDS011;2352;48.180;11.478;2022-11-18T09:02:54;0.80;;;0.80;;
4676;SDS011;2352;48.180;11.478;2022-11-18T09:06:03;0.70;;;0.70;;
4676;SDS011;2352;48.180;11.478;2022-11-18T09:09:07;1.00;;;1.00;;
4676;SDS011;2352;48.180;11.478;2022-11-18T09:12:12;0.60;;;0.60;;
4676;SDS011;2352;48.180;11.478;2022-11-18T09:15:17;0.93;;;0.90;;
4676;SDS011;2352;48.180;11.478;2022-11-18T09:18:21;5.13;;;0.67;;
4676;SDS011;2352;48.180;11.478;2022-11-18T09:21:24;0.70;;;0.70;;
4676;SDS011;2352;48.180;11.478;2022-11-18T09:24:28;0.60;;;0.60;;
4676;SDS011;2352;48.180;11.478;2022-11-18T09:27:32;0.50;;;0.50;;
4676;SDS011;2352;48.180;11.478;2022-11-18T09:30:35;0.57;;;0.57;;
4676;SDS011;2352;48.180;11.478;2022-11-18T09:33:38;0.30;;;0.30;;
4676;SDS011;2352;48.180;11.478;2022-11-18T09:36:42;0.67;;;0.40;;
4676;SDS011;2352;48.180;11.478;2022-11-18T09:39:45;0.40;;;0.40;;
4676;SDS011;2352;48.180;11.478;2022-11-18T09:42:53;0.30;;;0.30;;
4676;SDS011;2352;48.180;11.478;2022-11-18T09:46:07;0.67;;;0.40;;
4676;SDS011;2352;48.180;11.478;2022-11-18T09:49:25;0.97;;;0.60;;
4676;SDS011;2352;48.180;11.478;2022-11-18T09:52:31;0.33;;;0.33;;
4676;SDS011;2352;48.180;11.478;2022-11-18T09:55:40;0.20;;;0.20;;
4676;SDS011;2352;48.180;11.478;2022-11-18T09:58:45;0.63;;;0.50;;
4676;SDS011;2352;48.180;11.478;2022-11-18T10:01:48;0.60;;;0.60;;
4676;SDS011;2352;48.180;11.478;2022-11-18T10:04:52;0.57;;;0.50;;
4676;SDS011;2352;48.180;11.478;2022-11-18T10:07:58;0.37;;;0.37;;
4676;SDS011;2352;48.180;11.478;2022-11-18T10:11:17;1.07;;;0.70;;
4676;SDS011;2352;48.180;11.478;2022-11-18T10:14:27;0.83;;;0.50;;
4676;SDS011;2352;48.180;11.478;2022-11-18T10:17:43;0.20;;;0.20;;
4676;SDS011;2352;48.180;11.478;2022-11-18T10:20:54;0.20;;;0.20;;
4676;SDS011;2352;48.180;11.478;2022-11-18T10:24:03;0.30;;;0.30;;
4676;SDS011;2352;48.180;11.478;2022-11-18T10:27:14;0.37;;;0.37;;
4676;SDS011;2352;48.180;11.478;2022-11-18T10:30:20;0.20;;;0.20;;
4676;SDS011;2352;48.180;11.478;2022-11-18T10:33:28;0.40;;;0.40;;
4676;SDS011;2352;48.180;11.478;2022-11-18T10:36:31;0.23;;;0.23;;
4676;SDS011;2352;48.180;11.478;2022-11-18T10:39:43;0.70;;;0.40;;
4676;SDS011;2352;48.180;11.478;2022-11-18T10:42:51;0.40;;;0.40;;
4676;SDS011;2352;48.180;11.478;2022-11-18T10:45:56;0.40;;;0.40;;
4676;SDS011;2352;48.180;11.478;2022-11-18T10:49:11;0.33;;;0.33;;
4676;SDS011;2352;48.180;11.478;2022-11-18T10:52:16;0.47;;;0.40;;
4676;SDS011;2352;48.180;11.478;2022-11-18T10:55:20;0.73;;;0.40;;
4676;SDS011;2352;48.180;11.478;2022-11-18T10:58:24;1.60;;;0.40;;
4676;SDS011;2352;48.180;11.478;2022-11-18T11:01:31;0.70;;;0.50;;
4676;SDS011;2352;48.180;11.478;2022-11-18T11:04:34;0.30;;;0.30;;
4676;SDS011;2352;48.180;11.478;2022-11-18T11:07:39;0.47;;;0.47;;
4676;SDS011;2352;48.180;11.478;2022-11-18T11:10:43;0.87;;;0.60;;
4676;SDS011;2352;48.180;11.478;2022-11-18T11:17:19;0.93;;;0.63;;
4676;SDS011;2352;48.180;11.478;2022-11-18T11:20:28;2.47;;;1.30;;
4676;SDS011;2352;48.180;11.478;2022-11-18T11:23:31;1.70;;;0.50;;
4676;SDS011;2352;48.180;11.478;2022-11-18T11:26:36;0.40;;;0.40;;
4676;SDS011;2352;48.180;11.478;2022-11-18T11:30:08;0.60;;;0.60;;
4676;SDS011;2352;48.180;11.478;2022-11-18T11:33:28;0.67;;;0.67;;
4676;SDS011;2352;48.180;11.478;2022-11-18T11:36:41;0.50;;;0.50;;
4676;SDS011;2352;48.180;11.478;2022-11-18T11:39:58;1.70;;;0.37;;
4676;SDS011;2352;48.180;11.478;2022-11-18T11:43:16;0.40;;;0.40;;
4676;SDS011;2352;48.180;11.478;2022-11-18T11:46:31;0.37;;;0.37;;
4676;SDS011;2352;48.180;11.478;2022-11-18T11:49:50;0.63;;;0.40;;
4676;SDS011;2352;48.180;11.478;2022-11-18T11:53:04;0.30;;;0.30;;
4676;SDS011;2352;48.180;11.478;2022-11-18T11:56:20;1.83;;;0.40;;
4676;SDS011;2352;48.180;11.478;2022-11-18T11:59:29;0.40;;;0.40;;
4676;SDS011;2352;48.180;11.478;2022-11-18T12:02:48;0.80;;;0.80;;
4676;SDS011;2352;48.180;11.478;2022-11-18T12:06:06;0.73;;;0.30;;
4676;SDS011;2352;48.180;11.478;2022-11-18T12:09:10;0.40;;;0.40;;
4676;SDS011;2352;48.180;11.478;2022-11-18T12:12:22;0.50;;;0.50;;
4676;SDS011;2352;48.180;11.478;2022-11-18T12:15:40;0.57;;;0.43;;
4676;SDS011;2352;48.180;11.478;2022-11-18T12:18:51;0.43;;;0.43;;
4676;SDS011;2352;48.180;11.478;2022-11-18T12:21:59;0.43;;;0.43;;
4676;SDS011;2352;48.180;11.478;2022-11-18T12:25:16;0.73;;;0.50;;
4676;SDS011;2352;48.180;11.478;2022-11-18T12:29:05;0.53;;;0.50;;
4676;SDS011;2352;48.180;11.478;2022-11-18T12:32:24;1.27;;;0.60;;
4676;SDS011;2352;48.180;11.478;2022-11-18T12:35:30;1.03;;;0.60;;
4676;SDS011;2352;48.180;11.478;2022-11-18T12:38:35;0.50;;;0.50;;
4676;SDS011;2352;48.180;11.478;2022-11-18T12:41:51;0.50;;;0.50;;
4676;SDS011;2352;48.180;11.478;2022-11-18T12:45:43;0.83;;;0.47;;
4676;SDS011;2352;48.180;11.478;2022-11-18T12:48:50;0.40;;;0.40;;
4676;SDS011;2352;48.180;11.478;2022-11-18T12:51:53;0.50;;;0.50;;
4676;SDS011;2352;48.180;11.478;2022-11-18T12:54:58;0.33;;;0.33;;
4676;SDS011;2352;48.180;11.478;2022-11-18T12:58:18;0.97;;;0.30;;
4676;SDS011;2352;48.180;11.478;2022-11-18T13:01:24;0.83;;;0.37;;
4676;SDS011;2352;48.180;11.478;2022-11-18T13:04:28;0.47;;;0.47;;
4676;SDS011;2352;48.180;11.478;2022-11-18T13:07:31;0.40;;;0.40;;
4676;SDS011;2352;48.180;11.478;2022-11-18T13:10:56;2.27;;;0.43;;
4676;SDS011;2352;48.180;11.478;2022-11-18T13:14:24;0.40;;;0.30;;
4676;SDS011;2352;48.180;11.478;2022-11-18T13:17:47;0.73;;;0.50;;
4676;SDS011;2352;48.180;11.478;2022-11-18T13:20:56;0.30;;;0.30;;
4676;SDS011;2352;48.180;11.478;2022-11-18T13:24:20;0.30;;;0.30;;
4676;SDS011;2352;48.180;11.478;2022-11-18T13:27:30;0.40;;;0.27;;
4676;SDS011;2352;48.180;11.478;2022-11-18T13:30:43;0.43;;;0.40;;
4676;SDS011;2352;48.180;11.478;2022-11-18T13:33:51;0.43;;;0.40;;
4676;SDS011;2352;48.180;11.478;2022-11-18T13:36:55;0.60;;;0.60;;
4676;SDS011;2352;48.180;11.478;2022-11-18T13:40:00;0.57;;;0.53;;
4676;SDS011;2352;48.180;11.478;2022-11-18T13:43:04;0.77;;;0.57;;
4676;SDS011;2352;48.180;11.478;2022-11-18T13:46:13;0.73;;;0.50;;
4676;SDS011;2352;48.180;11.478;2022-11-18T13:49:20;0.40;;;0.40;;
4676;SDS011;2352;48.180;11.478;2022-11-18T13:52:29;0.77;;;0.50;;
4676;SDS011;2352;48.180;11.478;2022-11-18T13:55:37;0.43;;;0.33;;
4676;SDS011;2352;48.180;11.478;2022-11-18T13:58:51;2.53;;;1.00;;
4676;SDS011;2352;48.180;11.478;2022-11-18T14:02:16;0.80;;;0.80;;
4676;SDS011;2352;48.180;11.478;2022-11-18T14:05:19;0.60;;;0.60;;
4676;SDS011;2352;48.180;11.478;2022-11-18T14:08:24;1.13;;;0.80;;
4676;SDS011;2352;48.180;11.478;2022-11-18T14:11:33;1.00;;;0.87;;
4676;SDS011;2352;48.180;11.478;2022-11-18T14:14:39;0.70;;;0.70;;
4676;SDS011;2352;48.180;11.478;2022-11-18T14:17:53;1.07;;;0.97;;
4676;SDS011;2352;48.180;11.478;2022-11-18T14:20:57;1.07;;;1.07;;
4676;SDS011;2352;48.180;11.478;2022-11-18T14:24:02;1.30;;;1.20;;
4676;SDS011;2352;48.180;11.478;2022-11-18T14:30:39;1.10;;;1.10;;
4676;SDS011;2352;48.180;11.478;2022-11-18T14:33:51;3.13;;;2.93;;
4676;SDS011;2352;48.180;11.478;2022-11-18T14:37:08;2.03;;;1.93;;
4676;SDS011;2352;48.180;11.478;2022-11-18T14:40:13;1.70;;;1.60;;
4676;SDS011;2352;48.180;11.478;2022-11-18T14:43:16;3.13;;;1.80;;
4676;SDS011;2352;48.180;11.478;2022-11-18T14:46:20;2.07;;;1.87;;
4676;SDS011;2352;48.180;11.478;2022-11-18T14:49:25;4.87;;;4.57;;
4676;SDS011;2352;48.180;11.478;2022-11-18T14:52:30;1.07;;;1.03;;
4676;SDS011;2352;48.180;11.478;2022-11-18T14:55:33;2.07;;;0.90;;
4676;SDS011;2352;48.180;11.478;2022-11-18T14:58:37;1.40;;;1.30;;
4676;SDS011;2352;48.180;11.478;2022-11-18T15:01:42;1.87;;;0.60;;
4676;SDS011;2352;48.180;11.478;2022-11-18T15:04:46;0.80;;;0.60;;
4676;SDS011;2352;48.180;11.478;2022-11-18T15:07:50;0.60;;;0.60;;
4676;SDS011;2352;48.180;11.478;2022-11-18T15:10:53;0.80;;;0.80;;
4676;SDS011;2352;48.180;11.478;2022-11-18T15:13:56;0.90;;;0.73;;
4676;SDS011;2352;48.180;11.478;2022-11-18T15:17:01;1.97;;;0.80;;
4676;SDS011;2352;48.180;11.478;2022-11-18T15:20:04;0.57;;;0.57;;
4676;SDS011;2352;48.180;11.478;2022-11-18T15:23:08;0.50;;;0.50;;
4676;SDS011;2352;48.180;11.478;2022-11-18T15:26:14;1.60;;;0.87;;
4676;SDS011;2352;48.180;11.478;2022-11-18T15:29:21;1.47;;;1.00;;
4676;SDS011;2352;48.180;11.478;2022-11-18T15:32:26;1.20;;;1.10;;
4676;SDS011;2352;48.180;11.478;2022-11-18T15:35:29;1.43;;;1.33;;
4676;SDS011;2352;48.180;11.478;2022-11-18T15:38:32;1.97;;;1.60;;
4676;SDS011;2352;48.180;11.478;2022-11-18T15:41:36;1.77;;;1.67;;
4676;SDS011;2352;48.180;11.478;2022-11-18T15:44:40;3.70;;;3.30;;
4676;SDS011;2352;48.180;11.478;2022-11-18T15:47:44;4.07;;;3.77;;
4676;SDS011;2352;48.180;11.478;2022-11-18T15:50:47;1.63;;;1.40;;
4676;SDS011;2352;48.180;11.478;2022-11-18T15:53:54;1.10;;;1.00;;
4676;SDS011;2352;48.180;11.478;2022-11-18T15:56:58;2.30;;;1.60;;
4676;SDS011;2352;48.180;11.478;2022-11-18T16:00:01;1.83;;;1.20;;
4676;SDS011;2352;48.180;11.478;2022-11-18T16:03:06;2.70;;;1.80;;
4676;SDS011;2352;48.180;11.478;2022-11-18T16:06:09;1.87;;;1.77;;
4676;SDS011;2352;48.180;11.478;2022-11-18T16:09:12;1.60;;;1.50;;
4676;SDS011;2352;48.180;11.478;2022-11-18T16:12:17;1.60;;;1.50;;
4676;SDS011;2352;48.180;11.478;2022-11-18T16:15:37;1.73;;;1.63;;
4676;SDS011;2352;48.180;11.478;2022-11-18T16:18:52;1.77;;;1.67;;
4676;SDS011;2352;48.180;11.478;2022-11-18T16:21:55;1.90;;;1.53;;
4676;SDS011;2352;48.180;11.478;2022-11-18T16:24:58;1.70;;;1.60;;
4676;SDS011;2352;48.180;11.478;2022-11-18T16:28:01;1.73;;;1.63;;
4676;SDS011;2352;48.180;11.478;2022-11-18T16:31:08;1.73;;;1.63;;
4676;SDS011;2352;48.180;11.478;2022-11-18T16:34:29;1.80;;;1.67;;
4676;SDS011;2352;48.180;11.478;2022-11-18T16:37:32;2.80;;;1.87;;
4676;SDS011;2352;48.180;11.478;2022-11-18T16:40:35;1.20;;;1.10;;
4676;SDS011;2352;48.180;11.478;2022-11-18T16:43:38;1.40;;;1.30;;
4676;SDS011;2352;48.180;11.478;2022-11-18T16:46:42;1.93;;;1.83;;
4676;SDS011;2352;48.180;11.478;2022-11-18T16:49:49;1.60;;;1.30;;
4676;SDS011;2352;48.180;11.478;2022-11-18T16:52:52;1.13;;;1.03;;
4676;SDS011;2352;48.180;11.478;2022-11-18T16:55:55;1.30;;;1.20;;
4676;SDS011;2352;48.180;11.478;2022-11-18T16:59:06;2.33;;;1.50;;
4676;SDS011;2352;48.180;11.478;2022-11-18T17:02:13;1.27;;;1.17;;
4676;SDS011;2352;48.180;11.478;2022-11-18T17:05:17;2.70;;;1.90;;
4676;SDS011;2352;48.180;11.478;2022-11-18T17:08:20;1.93;;;1.83;;
4676;SDS011;2352;48.180;11.478;2022-11-18T17:11:23;1.40;;;1.33;;
4676;SDS011;2352;48.180;11.478;2022-11-18T17:14:27;1.50;;;1.20;;
4676;SDS011;2352;48.180;11.478;2022-11-18T17:17:30;2.10;;;2.00;;
4676;SDS011;2352;48.180;11.478;2022-11-18T17:20:35;2.97;;;2.80;;
4676;SDS011;2352;48.180;11.478;2022-11-18T17:23:38;2.90;;;1.67;;
4676;SDS011;2352;48.180;11.478;2022-11-18T17:26:42;3.67;;;3.07;;
4676;SDS011;2352;48.180;11.478;2022-11-18T17:29:45;1.87;;;1.77;;
4676;SDS011;2352;48.180;11.478;2022-11-18T17:32:51;2.47;;;2.27;;
4676;SDS011;2352;48.180;11.478;2022-11-18T17:35:59;1.50;;;1.40;;
4676;SDS011;2352;48.180;11.478;2022-11-18T17:39:03;2.03;;;1.83;;
4676;SDS011;2352;48.180;11.478;2022-11-18T17:42:05;1.50;;;1.40;;
4676;SDS011;2352;48.180;11.478;2022-11-18T17:45:22;1.50;;;1.40;;
4676;SDS011;2352;48.180;11.478;2022-11-18T17:48:26;1.60;;;1.50;;
4676;SDS011;2352;48.180;11.478;2022-11-18T17:51:31;1.77;;;1.63;;
4676;SDS011;2352;48.180;11.478;2022-11-18T17:54:34;2.07;;;1.80;;
4676;SDS011;2352;48.180;11.478;2022-11-18T17:57:37;2.50;;;2.03;;
4676;SDS011;2352;48.180;11.478;2022-11-18T18:00:40;1.90;;;1.80;;
4676;SDS011;2352;48.180;11.478;2022-11-18T18:03:43;2.47;;;2.27;;
4676;SDS011;2352;48.180;11.478;2022-11-18T18:06:48;2.23;;;2.10;;
4676;SDS011;2352;48.180;11.478;2022-11-18T18:09:53;2.63;;;2.43;;
4676;SDS011;2352;48.180;11.478;2022-11-18T18:12:56;2.53;;;2.33;;
4676;SDS011;2352;48.180;11.478;2022-11-18T18:16:16;3.57;;;2.60;;
4676;SDS011;2352;48.180;11.478;2022-11-18T18:19:20;6.03;;;3.63;;
4676;SDS011;2352;48.180;11.478;2022-11-18T18:22:25;3.00;;;2.70;;
4676;SDS011;2352;48.180;11.478;2022-11-18T18:25:28;3.17;;;2.97;;
4676;SDS011;2352;48.180;11.478;2022-11-18T18:28:31;2.17;;;2.07;;
4676;SDS011;2352;48.180;11.478;2022-11-18T18:31:35;1.87;;;1.77;;
4676;SDS011;2352;48.180;11.478;2022-11-18T18:34:38;5.10;;;2.67;;
4676;SDS011;2352;48.180;11.478;2022-11-18T18:37:42;8.17;;;7.57;;
4676;SDS011;2352;48.180;11.478;2022-11-18T18:40:45;6.63;;;6.23;;
4676;SDS011;2352;48.180;11.478;2022-11-18T18:43:48;2.40;;;2.20;;
4676;SDS011;2352;48.180;11.478;2022-11-18T18:46:51;3.90;;;3.60;;
4676;SDS011;2352;48.180;11.478;2022-11-18T18:49:54;2.83;;;2.60;;
4676;SDS011;2352;48.180;11.478;2022-11-18T18:52:59;2.87;;;2.63;;
4676;SDS011;2352;48.180;11.478;2022-11-18T18:56:02;2.50;;;2.10;;
4676;SDS011;2352;48.180;11.478;2022-11-18T18:59:05;2.73;;;2.53;;
4676;SDS011;2352;48.180;11.478;2022-11-18T19:02:09;2.47;;;2.27;;
4676;SDS011;2352;48.180;11.478;2022-11-18T19:05:13;5.53;;;5.03;;
4676;SDS011;2352;48.180;11.478;2022-11-18T19:08:17;5.30;;;4.80;;
4676;SDS011;2352;48.180;11.478;2022-11-18T19:11:20;8.00;;;7.23;;